Hot Springs, Virginia
Current Conditions -  °F | °C
As of 1:15 AM on Friday 19 Dec 2014 (Local Time) from KHSP Reporting Station
Broken Clouds Broken Clouds  
Wind Chill: 12°   Ceiling: 6500
Heat Index: 24°   Visibility: 10mi
Dew Point: 18°   Wind: 13mph
Humidity: 79%   Direction: 280°W
Pressure: 29.96"   Gusts: 18mph
Location:  37.97°N, 79.77°W
Report Text: KHSP 190615Z AUTO 28011G16KT 10SM SCT050 BKN065 M04/M08 A2996 RMK AO2 T10451076
Loading
Personal Weather Stations






























Interactive Weather Map New forecast layout! Learn more

10-Day Weather Forecast

Advertisements
Track Severe Weather on mobile